Time;durP1;ratioP1;P1;durP2;ratioP2;P2;SDS_P1;SDS_P2;PMS_P1;PMS_P2;Temp;Humidity;BMP_temperature;BMP_pressure;BME280_temperature;BME280_humidity;BME280_pressure;Samples;Min_cycle;Max_cycle;Signal;HPM_P1;HPM_P2
2021/03/22 00:02:18;;;;;;;18.47;5.77;;;;;;;4.89;84.69;100809.50;636509;225;24997;-75
2021/03/22 00:04:46;;;;;;;21.23;5.20;;;;;;;4.84;85.49;100808.14;636645;223;24958;-76
2021/03/22 00:07:14;;;;;;;28.70;5.70;;;;;;;4.87;85.13;100816.97;636991;224;24912;-76
2021/03/22 00:09:42;;;;;;;20.23;4.80;;;;;;;4.84;85.79;100825.72;644047;220;25167;-75
2021/03/22 00:12:11;;;;;;;25.20;6.58;;;;;;;4.98;85.55;100832.61;639625;221;32814;-75
2021/03/22 00:14:39;;;;;;;24.40;5.70;;;;;;;5.01;84.76;100817.77;650342;221;23748;-77
2021/03/22 00:17:08;;;;;;;25.53;6.60;;;;;;;5.10;84.39;100816.39;641915;221;24888;-76
2021/03/22 00:19:36;;;;;;;26.73;6.13;;;;;;;5.03;84.93;100812.52;631832;225;24937;-75
2021/03/22 00:22:04;;;;;;;24.13;6.03;;;;;;;5.14;84.12;100801.55;631183;226;24929;-75
2021/03/22 00:24:32;;;;;;;25.83;5.90;;;;;;;5.29;82.14;100803.98;638525;222;24905;-75
2021/03/22 00:27:00;;;;;;;28.80;5.20;;;;;;;5.18;82.58;100793.52;631253;225;24947;-75
2021/03/22 00:29:28;;;;;;;26.73;5.97;;;;;;;5.22;83.27;100799.33;647732;221;24922;-75
2021/03/22 00:31:56;;;;;;;18.70;5.40;;;;;;;5.34;82.08;100792.08;645749;220;24880;-75
2021/03/22 00:34:24;;;;;;;23.80;6.40;;;;;;;5.30;83.01;100797.91;635754;225;25016;-76
2021/03/22 00:36:52;;;;;;;25.27;6.65;;;;;;;5.44;82.40;100794.45;623839;226;32908;-75
2021/03/22 00:39:19;;;;;;;25.50;6.43;;;;;;;5.35;82.02;100793.77;645964;221;23762;-75
2021/03/22 00:41:47;;;;;;;21.50;5.87;;;;;;;5.35;82.35;100789.44;638919;222;24918;-75
2021/03/22 00:44:15;;;;;;;16.90;5.10;;;;;;;5.25;82.83;100791.39;627425;225;24949;-75
2021/03/22 00:46:43;;;;;;;20.70;5.57;;;;;;;5.34;81.44;100790.80;626715;225;24961;-74
2021/03/22 00:49:11;;;;;;;22.23;5.70;;;;;;;5.32;81.60;100783.16;641651;221;25017;-75
2021/03/22 00:51:39;;;;;;;23.80;5.70;;;;;;;5.23;82.00;100783.77;629237;225;24922;-75
2021/03/22 00:54:11;;;;;;;15.27;4.77;;;;;;;5.33;82.50;100782.23;633292;226;25228;-75
2021/03/22 00:56:39;;;;;;;27.70;5.87;;;;;;;5.26;82.60;100787.42;635680;224;25161;-75
2021/03/22 00:59:07;;;;;;;27.50;6.70;;;;;;;5.31;82.05;100786.66;634214;224;32647;-75
2021/03/22 01:01:35;;;;;;;28.57;6.53;;;;;;;5.30;82.39;100786.77;631792;225;24939;-75
2021/03/22 01:04:02;;;;;;;23.07;5.60;;;;;;;5.34;82.45;100785.64;645861;219;28111;-75
2021/03/22 01:06:30;;;;;;;20.37;5.40;;;;;;;5.20;82.10;100781.81;631806;224;24920;-75
2021/03/22 01:08:58;;;;;;;19.90;5.77;;;;;;;5.13;82.84;100779.27;641796;220;24916;-75
2021/03/22 01:11:26;;;;;;;25.53;5.50;;;;;;;5.22;81.56;100773.08;629155;226;24922;-75
2021/03/22 01:13:54;;;;;;;22.90;5.37;;;;;;;5.15;82.48;100770.52;633272;225;24929;-75
2021/03/22 01:16:22;;;;;;;26.07;5.70;;;;;;;5.13;81.37;100772.36;645824;220;25925;-75
2021/03/22 01:18:50;;;;;;;27.73;5.77;;;;;;;4.99;82.94;100773.23;639742;222;24876;-75
2021/03/22 01:21:18;;;;;;;14.73;5.33;;;;;;;5.06;81.83;100768.50;638692;221;24892;-76
2021/03/22 01:23:46;;;;;;;24.53;5.10;;;;;;;5.06;81.48;100758.19;643758;221;24884;-76
2021/03/22 01:26:14;;;;;;;16.00;5.13;;;;;;;5.02;82.35;100761.89;627513;225;24936;-74
2021/03/22 01:28:42;;;;;;;16.00;4.07;;;;;;;4.93;83.33;100763.77;635458;225;24936;-75
2021/03/22 01:31:09;;;;;;;16.50;4.20;;;;;;;4.96;83.09;100761.00;643416;221;24969;-75
2021/03/22 01:33:40;;;;;;;23.23;5.77;;;;;;;4.94;83.25;100765.42;640194;222;24991;-75
2021/03/22 01:36:06;;;;;;;24.40;5.20;;;;;;;4.98;82.64;100751.42;636308;222;32740;-75
2021/03/22 01:38:34;;;;;;;18.73;5.03;;;;;;;5.00;81.88;100746.53;638333;222;23808;-76
2021/03/22 01:41:07;;;;;;;18.97;4.87;;;;;;;5.03;81.55;100748.91;641547;221;24910;-75
2021/03/22 01:44:00;;;;;;;13.40;4.73;;;;;;;5.02;81.81;100749.00;646642;221;31322;-77
2021/03/22 01:46:28;;;;;;;25.03;5.10;;;;;;;4.96;83.47;100756.67;626796;221;26218;-76
2021/03/22 01:48:56;;;;;;;13.83;3.93;;;;;;;5.04;82.81;100752.31;630032;225;24958;-75
2021/03/22 01:51:24;;;;;;;23.57;5.13;;;;;;;4.96;82.46;100747.65;642649;221;24955;-75
2021/03/22 01:53:53;;;;;;;18.20;4.13;;;;;;;4.98;82.86;100755.28;629616;225;24942;-75
2021/03/22 01:56:23;;;;;;;17.27;5.27;;;;;;;4.88;82.84;100752.44;631488;225;24934;-75
2021/03/22 01:58:52;;;;;;;16.27;4.80;;;;;;;4.99;81.87;100750.03;643573;221;24906;-74
2021/03/22 02:01:20;;;;;;;16.80;4.20;;;;;;;4.95;80.97;100742.59;640643;221;24894;-75
2021/03/22 02:03:48;;;;;;;16.47;4.00;;;;;;;4.91;81.15;100738.53;627293;225;24954;-74
2021/03/22 02:06:16;;;;;;;13.70;3.57;;;;;;;4.90;81.67;100742.03;629811;225;24957;-75
2021/03/22 02:08:44;;;;;;;20.57;4.10;;;;;;;4.91;81.24;100739.83;632989;225;24955;-75
2021/03/22 02:11:17;;;;;;;21.60;4.10;;;;;;;4.91;82.28;100753.53;632115;225;24943;-75
2021/03/22 02:13:45;;;;;;;12.33;4.77;;;;;;;4.94;81.38;100749.96;643406;221;24885;-75
2021/03/22 02:16:14;;;;;;;22.93;4.33;;;;;;;5.03;81.35;100749.37;643082;220;24877;-75
2021/03/22 02:18:44;;;;;;;16.47;4.77;;;;;;;5.05;80.73;100747.05;633936;225;24949;-75
2021/03/22 02:21:26;;;;;;;17.57;3.97;;;;;;;5.00;81.46;100749.11;641314;220;27068;-75
2021/03/22 02:24:25;;;;;;;12.33;3.50;;;;;;;4.99;81.36;100744.05;646675;221;24894;-75
2021/03/22 02:27:22;;;;;;;21.33;3.73;;;;;;;5.03;81.92;100748.08;643399;222;24947;-75
2021/03/22 02:30:00;;;;;;;22.22;4.70;;;;;;;5.08;81.94;100755.08;629087;224;32825;-75
2021/03/22 02:32:33;;;;;;;19.30;4.47;;;;;;;4.99;81.38;100751.78;637608;223;25205;-75
2021/03/22 02:35:01;;;;;;;19.07;4.95;;;;;;;5.01;81.81;100753.80;635734;221;43498;-74
2021/03/22 02:37:35;;;;;;;14.47;3.87;;;;;;;4.96;81.65;100758.42;637218;221;23782;-75
2021/03/22 02:40:07;;;;;;;12.20;3.87;;;;;;;4.90;82.03;100757.03;643353;221;24872;-75
2021/03/22 02:42:35;;;;;;;21.40;4.30;;;;;;;4.90;81.70;100762.66;639087;221;30291;-74
2021/03/22 02:45:03;;;;;;;13.63;3.80;;;;;;;4.86;82.69;100759.91;629730;226;24939;-75
2021/03/22 02:47:31;;;;;;;20.97;3.77;;;;;;;4.90;81.33;100755.75;641898;221;24918;-75
2021/03/22 02:49:59;;;;;;;20.83;3.97;;;;;;;4.92;81.08;100756.94;626478;225;27114;-74
2021/03/22 02:52:38;;;;;;;18.17;4.50;;;;;;;4.89;81.38;100762.28;645718;221;24894;-76
2021/03/22 02:55:07;;;;;;;16.40;4.17;;;;;;;4.87;82.22;100760.27;632404;225;24950;-75
2021/03/22 02:57:35;;;;;;;25.60;4.40;;;;;;;4.85;82.38;100756.97;645773;221;25479;-75
2021/03/22 03:00:04;;;;;;;21.25;4.70;;;;;;;4.86;82.14;100756.05;635526;221;32816;-75
2021/03/22 03:02:32;;;;;;;24.00;5.17;;;;;;;4.94;81.68;100754.66;641238;221;23773;-76
2021/03/22 03:05:08;;;;;;;14.07;3.63;;;;;;;4.91;81.04;100754.82;639414;222;24972;-75
2021/03/22 03:07:36;;;;;;;16.63;3.80;;;;;;;4.93;80.90;100741.87;639387;221;24917;-75
2021/03/22 03:10:07;;;;;;;23.93;4.70;;;;;;;4.85;81.66;100755.68;638901;221;24947;-75
2021/03/22 03:12:34;;;;;;;16.05;4.78;;;;;;;4.96;80.82;100755.38;634057;221;32735;-76
2021/03/22 03:15:03;;;;;;;15.10;4.20;;;;;;;4.90;80.63;100753.63;641373;221;23794;-75
2021/03/22 03:17:31;;;;;;;16.03;4.60;;;;;;;4.84;81.50;100766.91;641231;221;29355;-76
2021/03/22 03:19:59;;;;;;;17.43;4.47;;;;;;;4.85;82.35;100765.52;639353;221;24901;-75
2021/03/22 03:22:27;;;;;;;20.90;5.40;;;;;;;4.69;83.06;100772.55;640598;221;24908;-75
2021/03/22 03:24:55;;;;;;;20.53;3.93;;;;;;;4.82;82.62;100776.48;643082;221;24885;-75
2021/03/22 03:27:23;;;;;;;21.17;4.70;;;;;;;4.84;82.53;100775.93;642444;220;25193;-75
2021/03/22 03:29:50;;;;;;;21.77;4.40;;;;;;;4.86;81.50;100774.08;630340;225;29152;-75
2021/03/22 03:32:18;;;;;;;15.13;4.30;;;;;;;4.82;81.21;100772.63;644891;221;24916;-75
2021/03/22 03:34:46;;;;;;;16.30;3.67;;;;;;;4.83;81.47;100766.09;631437;225;24986;-75
2021/03/22 03:37:14;;;;;;;17.60;4.90;;;;;;;4.85;82.88;100775.01;640641;221;24971;-75
2021/03/22 03:39:42;;;;;;;18.30;4.37;;;;;;;4.82;82.86;100779.06;624912;225;32887;-74
2021/03/22 03:42:11;;;;;;;16.55;4.40;;;;;;;4.90;82.50;100782.81;631147;225;32932;-75
2021/03/22 03:44:38;;;;;;;20.62;5.00;;;;;;;4.93;82.55;100785.69;633053;221;33036;-76
2021/03/22 03:47:07;;;;;;;18.27;3.92;;;;;;;4.95;80.51;100773.52;630085;225;33384;-74
2021/03/22 03:49:35;;;;;;;14.70;3.67;;;;;;;4.88;81.38;100773.06;633704;225;23820;-74
2021/03/22 03:52:03;;;;;;;13.80;3.90;;;;;;;4.92;80.46;100766.78;630148;226;24954;-75
2021/03/22 03:54:31;;;;;;;17.33;3.47;;;;;;;4.86;81.70;100770.22;626375;225;24966;-75
2021/03/22 03:56:59;;;;;;;12.07;3.30;;;;;;;4.79;81.79;100777.97;636200;225;27111;-75
2021/03/22 03:59:27;;;;;;;14.60;3.77;;;;;;;4.81;80.89;100778.23;631849;225;24910;-75
2021/03/22 04:01:55;;;;;;;16.53;3.67;;;;;;;4.84;81.42;100774.64;644080;221;25043;-75
2021/03/22 04:04:22;;;;;;;19.83;3.53;;;;;;;4.72;81.69;100782.20;644144;221;24932;-75
2021/03/22 04:06:50;;;;;;;14.47;2.97;;;;;;;4.75;79.90;100770.87;632645;225;24917;-75
2021/03/22 04:09:20;;;;;;;14.60;3.20;;;;;;;4.87;79.01;100759.81;639560;221;24885;-74
2021/03/22 04:11:46;;;;;;;18.57;4.10;;;;;;;4.92;80.46;100767.25;632871;225;24893;-76
2021/03/22 04:14:15;;;;;;;14.73;3.33;;;;;;;4.98;78.92;100756.57;631688;225;32922;-75
2021/03/22 04:16:43;;;;;;;12.10;3.00;;;;;;;4.96;79.26;100762.28;647356;220;24878;-75
2021/03/22 04:19:11;;;;;;;17.27;3.37;;;;;;;4.85;80.65;100769.39;640698;221;24951;-76
2021/03/22 04:21:39;;;;;;;18.53;3.00;;;;;;;4.81;79.79;100762.78;627506;226;24917;-75
2021/03/22 04:24:08;;;;;;;26.00;3.80;;;;;;;4.72;81.16;100770.60;642328;221;25073;-75
2021/03/22 04:26:36;;;;;;;19.47;4.17;;;;;;;4.75;81.52;100769.58;641763;221;24955;-75
2021/03/22 04:29:04;;;;;;;8.63;3.00;;;;;;;4.75;81.72;100775.56;639076;221;24896;-75
2021/03/22 04:31:31;;;;;;;19.07;3.37;;;;;;;4.71;81.03;100775.39;647316;221;24888;-75
2021/03/22 04:33:59;;;;;;;19.10;4.00;;;;;;;4.76;81.60;100783.66;643561;222;24956;-75
2021/03/22 04:36:27;;;;;;;9.23;3.70;;;;;;;4.69;81.58;100784.97;643204;221;31373;-75
2021/03/22 04:38:55;;;;;;;16.47;3.07;;;;;;;4.72;81.25;100791.67;643195;221;24866;-76
2021/03/22 04:41:23;;;;;;;13.60;3.53;;;;;;;4.71;81.21;100790.84;629931;224;24935;-76
2021/03/22 04:43:51;;;;;;;13.60;2.77;;;;;;;4.69;81.93;100786.25;643809;221;24882;-75
2021/03/22 04:46:19;;;;;;;15.63;3.53;;;;;;;4.73;80.85;100784.31;646164;220;24869;-75
2021/03/22 04:48:47;;;;;;;12.10;3.23;;;;;;;4.67;81.51;100785.98;641991;221;24889;-75
2021/03/22 04:51:15;;;;;;;15.90;3.63;;;;;;;4.75;81.60;100792.30;641332;220;24866;-76
2021/03/22 04:53:43;;;;;;;12.70;2.93;;;;;;;4.75;81.87;100789.73;638576;222;24872;-75
2021/03/22 04:56:11;;;;;;;11.17;2.63;;;;;;;4.71;81.75;100793.89;639447;221;24904;-75
2021/03/22 04:58:39;;;;;;;17.17;3.27;;;;;;;4.83;79.75;100800.88;634154;221;43438;-75
2021/03/22 05:01:08;;;;;;;11.80;2.90;;;;;;;4.76;80.22;100786.69;643202;221;23752;-76
2021/03/22 05:03:36;;;;;;;9.10;2.33;;;;;;;4.73;81.59;100792.87;649165;221;25104;-75
2021/03/22 05:06:03;;;;;;;13.70;3.33;;;;;;;4.73;81.39;100794.62;638589;221;32704;-75
2021/03/22 05:08:31;;;;;;;19.30;2.67;;;;;;;4.76;80.70;100797.83;629091;225;23834;-75
2021/03/22 05:11:00;;;;;;;13.30;3.13;;;;;;;4.78;80.99;100804.17;640918;221;24881;-75
2021/03/22 05:13:28;;;;;;;8.70;2.20;;;;;;;4.67;81.34;100804.84;635918;225;24920;-76
2021/03/22 05:15:56;;;;;;;15.70;2.50;;;;;;;4.68;81.94;100813.40;634719;225;24917;-75
2021/03/22 05:18:24;;;;;;;16.27;2.70;;;;;;;4.81;81.62;100809.63;628905;225;32842;-75
2021/03/22 05:20:54;;;;;;;12.03;2.90;;;;;;;4.71;82.04;100814.03;632689;226;23801;-76
2021/03/22 05:23:23;;;;;;;13.97;2.70;;;;;;;4.75;81.60;100818.07;642734;221;24871;-75
2021/03/22 05:25:51;;;;;;;11.10;2.37;;;;;;;4.62;82.42;100817.62;633807;226;25049;-76
2021/03/22 05:28:19;;;;;;;15.13;3.57;;;;;;;4.73;82.75;100818.62;641188;221;24909;-76
2021/03/22 05:30:47;;;;;;;8.90;2.43;;;;;;;4.66;82.36;100817.82;643363;220;24883;-76
2021/03/22 05:33:15;;;;;;;10.43;2.60;;;;;;;4.71;82.69;100826.92;637721;221;25315;-76
2021/03/22 05:35:43;;;;;;;8.23;2.20;;;;;;;4.69;82.52;100818.45;627078;226;24903;-76
2021/03/22 05:38:11;;;;;;;15.17;2.67;;;;;;;4.66;83.50;100831.53;632699;225;24958;-76
2021/03/22 05:40:39;;;;;;;17.80;4.13;;;;;;;4.62;83.01;100828.75;640903;221;24899;-76
2021/03/22 05:43:13;;;;;;;8.93;2.40;;;;;;;4.74;82.74;100826.72;630135;225;24914;-76
2021/03/22 05:45:51;;;;;;;6.70;2.17;;;;;;;4.79;80.83;100815.33;634585;222;24870;-76
2021/03/22 05:48:27;;;;;;;9.70;1.93;;;;;;;4.70;81.36;100821.40;633228;225;24970;-76
2021/03/22 05:51:02;;;;;;;11.00;2.90;;;;;;;4.68;81.94;100827.11;640426;221;24902;-75
2021/03/22 05:53:35;;;;;;;9.20;2.63;;;;;;;4.68;81.83;100828.39;633790;225;25145;-76
2021/03/22 05:56:03;;;;;;;10.40;2.23;;;;;;;4.69;82.03;100836.49;636592;224;24925;-76
2021/03/22 05:58:36;;;;;;;17.20;3.00;;;;;;;4.80;82.34;100842.30;642987;220;32670;-75
2021/03/22 06:01:04;;;;;;;14.85;3.00;;;;;;;4.90;81.78;100837.39;640199;220;32748;-76
2021/03/22 06:03:33;;;;;;;12.87;3.00;;;;;;;4.85;81.95;100841.55;637335;225;23785;-75
2021/03/22 06:06:05;;;;;;;13.15;2.87;;;;;;;4.91;81.50;100853.22;628579;225;32919;-76
2021/03/22 06:08:34;;;;;;;12.17;2.90;;;;;;;4.92;81.87;100846.67;638879;221;23855;-76
2021/03/22 06:11:03;;;;;;;10.80;2.83;;;;;;;4.85;82.24;100853.60;626478;225;25047;-76
2021/03/22 06:13:32;;;;;;;11.23;2.83;;;;;;;4.98;82.42;100857.09;637423;224;24892;-75
2021/03/22 06:16:00;;;;;;;9.50;1.97;;;;;;;4.94;82.38;100854.34;645061;220;25186;-75
2021/03/22 06:18:29;;;;;;;10.37;2.37;;;;;;;4.97;81.67;100858.02;626895;225;24926;-76
2021/03/22 06:20:57;;;;;;;11.03;2.33;;;;;;;4.96;82.18;100853.33;626771;226;24956;-75
2021/03/22 06:23:27;;;;;;;18.20;2.80;;;;;;;4.94;82.34;100863.37;649546;221;24872;-76
2021/03/22 06:25:55;;;;;;;13.47;2.63;;;;;;;4.96;83.00;100869.25;647827;221;24884;-77
2021/03/22 06:28:22;;;;;;;11.10;2.47;;;;;;;5.02;83.06;100862.42;633248;225;25138;-76
2021/03/22 06:30:56;;;;;;;13.00;2.50;;;;;;;4.99;83.43;100867.77;630043;225;25168;-76
2021/03/22 06:33:26;;;;;;;9.10;3.13;;;;;;;4.93;83.49;100872.84;639926;221;24872;-76
2021/03/22 06:35:54;;;;;;;7.80;2.10;;;;;;;4.97;82.81;100867.86;633419;225;25002;-75
2021/03/22 06:38:22;;;;;;;9.27;2.60;;;;;;;5.09;82.80;100867.58;628771;225;27062;-75
2021/03/22 06:40:50;;;;;;;5.50;1.80;;;;;;;5.13;82.02;100875.95;643691;221;24889;-76
2021/03/22 06:43:18;;;;;;;10.67;2.13;;;;;;;5.03;82.17;100866.66;643819;221;24874;-76
2021/03/22 06:45:46;;;;;;;16.63;2.60;;;;;;;5.04;81.84;100866.55;640142;221;24884;-75
2021/03/22 06:48:19;;;;;;;12.47;3.30;;;;;;;5.10;81.44;100865.83;645433;222;24869;-76
2021/03/22 06:50:47;;;;;;;13.40;2.87;;;;;;;5.02;81.97;100867.58;639706;221;24900;-75
2021/03/22 06:53:28;;;;;;;13.63;3.07;;;;;;;5.14;82.02;100877.14;646265;222;24888;-75
2021/03/22 06:55:56;;;;;;;6.90;2.40;;;;;;;5.10;82.53;100874.86;642002;221;24930;-76
2021/03/22 06:58:26;;;;;;;8.70;2.40;;;;;;;5.17;82.81;100878.23;638038;222;24882;-76
2021/03/22 07:00:54;;;;;;;12.73;3.13;;;;;;;5.22;82.38;100876.22;645306;222;24883;-77
2021/03/22 07:03:21;;;;;;;11.50;2.47;;;;;;;5.23;82.49;100873.19;640757;221;24904;-76
2021/03/22 07:05:49;;;;;;;9.30;2.40;;;;;;;5.35;80.94;100868.56;639593;221;24880;-76
2021/03/22 07:08:19;;;;;;;13.13;2.83;;;;;;;5.30;81.82;100870.11;644739;220;24879;-76
2021/03/22 07:11:04;;;;;;;15.40;3.00;;;;;;;5.54;80.83;100865.19;636765;220;32672;-75
2021/03/22 07:13:32;;;;;;;10.40;2.67;;;;;;;5.61;80.44;100865.61;642134;221;23806;-75
2021/03/22 07:16:13;;;;;;;14.10;2.50;;;;;;;5.65;81.71;100873.54;643975;221;24883;-75
2021/03/22 07:18:41;;;;;;;22.93;3.50;;;;;;;5.43;80.90;100874.05;641409;221;26132;-78
2021/03/22 07:21:12;;;;;;;12.00;2.98;;;;;;;5.81;81.07;100873.39;636625;221;32731;-76
2021/03/22 07:23:46;;;;;;;7.93;2.70;;;;;;;5.70;81.21;100875.36;631313;225;23824;-75
2021/03/22 07:26:18;;;;;;;7.70;2.23;;;;;;;5.74;80.98;100876.80;629360;225;24908;-76
2021/03/22 07:28:50;;;;;;;11.20;2.73;;;;;;;5.74;80.87;100881.97;641634;224;24843;-76
2021/03/22 07:31:24;;;;;;;8.80;2.30;;;;;;;5.74;80.32;100879.85;641971;223;24865;-75
2021/03/22 07:33:55;;;;;;;13.33;3.40;;;;;;;5.87;80.35;100882.84;629239;226;24916;-75
2021/03/22 07:36:24;;;;;;;13.30;3.47;;;;;;;5.77;80.05;100879.22;627214;225;24919;-76
2021/03/22 07:39:00;;;;;;;21.00;5.20;;;;;;;5.81;81.35;100881.95;630737;225;24925;-76
2021/03/22 07:41:30;;;;;;;10.27;3.37;;;;;;;5.92;80.82;100883.89;642997;221;30392;-75
2021/03/22 07:44:07;;;;;;;8.47;2.60;;;;;;;6.03;79.15;100874.97;639274;221;24901;-75
2021/03/22 07:46:44;;;;;;;12.17;3.10;;;;;;;5.95;77.74;100875.48;640584;221;25047;-75
2021/03/22 07:49:17;;;;;;;12.20;2.93;;;;;;;5.99;78.58;100870.94;627589;225;24934;-75
2021/03/22 07:52:01;;;;;;;10.70;3.50;;;;;;;5.98;78.92;100877.49;627472;225;24907;-75
2021/03/22 07:54:33;;;;;;;10.97;2.97;;;;;;;6.16;79.26;100890.48;639674;221;25157;-75
2021/03/22 07:57:02;;;;;;;12.53;2.50;;;;;;;6.03;79.67;100887.87;643949;221;25096;-76
2021/03/22 07:59:31;;;;;;;10.35;3.20;;;;;;;6.31;78.13;100894.65;622870;225;32850;-75
2021/03/22 08:02:01;;;;;;;7.80;2.80;;;;;;;6.21;78.59;100887.16;641747;221;24863;-75
2021/03/22 08:04:41;;;;;;;9.20;2.97;;;;;;;6.23;77.75;100887.42;628819;225;25223;-75
2021/03/22 08:07:14;;;;;;;12.30;2.97;;;;;;;6.24;78.34;100893.41;644838;221;24889;-75
2021/03/22 08:09:46;;;;;;;8.73;2.90;;;;;;;6.18;78.08;100888.63;629775;225;24931;-75
2021/03/22 08:12:15;;;;;;;6.50;2.40;;;;;;;6.18;76.92;100888.63;635677;225;28085;-75
2021/03/22 08:14:44;;;;;;;10.80;2.93;;;;;;;6.12;77.22;100880.00;645308;220;24881;-75
2021/03/22 08:17:23;;;;;;;9.40;2.43;;;;;;;6.30;78.84;100899.92;638235;221;24878;-75
2021/03/22 08:19:55;;;;;;;8.63;3.07;;;;;;;6.43;78.46;100897.72;636208;224;24934;-76
2021/03/22 08:22:24;;;;;;;9.73;3.70;;;;;;;6.42;76.13;100896.53;643945;221;24877;-75
2021/03/22 08:24:56;;;;;;;5.37;2.87;;;;;;;6.51;77.08;100897.22;643647;221;24895;-75
2021/03/22 08:27:24;;;;;;;9.23;2.60;;;;;;;6.50;77.65;100904.15;639164;222;24882;-75
2021/03/22 08:29:53;;;;;;;9.30;3.03;;;;;;;6.68;77.09;100910.30;645352;221;24894;-76
2021/03/22 08:32:31;;;;;;;6.77;2.93;;;;;;;6.85;76.67;100909.52;628127;225;24959;-76
2021/03/22 08:34:59;;;;;;;12.20;3.10;;;;;;;6.74;75.72;100911.17;643406;221;25175;-75
2021/03/22 08:37:27;;;;;;;13.15;3.52;;;;;;;6.98;75.23;100899.64;622072;225;32818;-75
2021/03/22 08:39:56;;;;;;;9.77;3.10;;;;;;;7.00;74.33;100893.42;633322;225;23798;-75
2021/03/22 08:42:23;;;;;;;10.80;2.80;;;;;;;6.94;75.14;100901.62;638413;221;24877;-74
2021/03/22 08:44:53;;;;;;;10.20;2.40;;;;;;;7.00;75.03;100897.31;632535;225;25123;-76
2021/03/22 08:47:33;;;;;;;9.00;2.77;;;;;;;7.00;75.14;100898.59;644210;221;25958;-76
2021/03/22 08:50:01;;;;;;;10.73;2.97;;;;;;;6.93;74.69;100902.55;648207;221;24880;-75
2021/03/22 08:52:29;;;;;;;8.17;2.57;;;;;;;6.89;74.07;100903.67;640650;221;24880;-75
2021/03/22 08:55:03;;;;;;;5.67;2.70;;;;;;;7.01;74.70;100909.30;638981;221;24898;-75
2021/03/22 08:57:31;;;;;;;10.70;3.43;;;;;;;7.09;74.72;100916.08;627661;225;24897;-75
2021/03/22 09:00:21;;;;;;;14.40;3.67;;;;;;;7.21;74.93;100913.59;642453;221;24912;-76
2021/03/22 09:02:52;;;;;;;7.63;2.80;;;;;;;7.14;73.85;100914.46;630289;225;26876;-75
2021/03/22 09:05:20;;;;;;;8.40;2.87;;;;;;;7.39;73.17;100912.30;642919;221;24869;-76
2021/03/22 09:07:48;;;;;;;6.83;3.07;;;;;;;7.57;73.33;100921.82;628170;225;24933;-74
2021/03/22 09:10:27;;;;;;;7.40;2.83;;;;;;;7.77;72.97;100907.48;645043;221;24970;-77
2021/03/22 09:12:56;;;;;;;8.53;3.20;;;;;;;7.98;73.34;100907.20;642051;221;29123;-76
2021/03/22 09:15:23;;;;;;;11.97;3.73;;;;;;;7.97;73.02;100912.86;629989;225;24963;-76
2021/03/22 09:18:09;;;;;;;7.33;2.63;;;;;;;7.90;72.93;100914.72;640684;221;24916;-75
2021/03/22 09:20:50;;;;;;;7.97;3.50;;;;;;;7.74;72.46;100911.94;628906;225;24926;-76
2021/03/22 09:23:19;;;;;;;12.27;3.70;;;;;;;7.74;72.10;100915.83;626987;226;25029;-77
2021/03/22 09:25:56;;;;;;;10.07;2.90;;;;;;;7.50;74.31;100925.32;644733;220;24971;-76
2021/03/22 09:28:34;;;;;;;8.40;2.33;;;;;;;7.38;73.60;100928.77;643261;220;24868;-75
2021/03/22 09:31:02;;;;;;;6.20;2.87;;;;;;;7.70;71.53;100923.43;645185;220;24877;-75
2021/03/22 09:33:48;;;;;;;10.33;2.77;;;;;;;7.49;73.42;100928.84;647949;220;24919;-76
2021/03/22 09:36:26;;;;;;;8.03;2.90;;;;;;;7.45;74.81;100939.03;641574;220;25161;-75
2021/03/22 09:38:54;;;;;;;4.27;2.63;;;;;;;7.38;75.00;100939.11;643722;220;24927;-76
2021/03/22 09:41:41;;;;;;;6.70;2.50;;;;;;;7.19;73.29;100930.52;645665;221;24914;-76
2021/03/22 09:44:10;;;;;;;3.77;2.60;;;;;;;7.22;74.25;100939.81;644361;221;24873;-75
2021/03/22 09:46:38;;;;;;;4.50;2.13;;;;;;;7.28;73.86;100931.16;642269;221;24892;-75
2021/03/22 09:49:17;;;;;;;11.43;3.23;;;;;;;7.35;74.17;100936.74;630666;225;24937;-75
2021/03/22 09:51:47;;;;;;;8.00;2.90;;;;;;;7.40;73.13;100935.48;635939;223;25961;-75
2021/03/22 09:54:24;;;;;;;7.13;3.10;;;;;;;7.43;72.23;100929.26;641317;223;31425;-74
2021/03/22 09:57:11;;;;;;;9.87;3.07;;;;;;;7.53;73.03;100935.45;637725;223;31160;-75
2021/03/22 09:59:58;;;;;;;5.37;2.10;;;;;;;7.70;72.79;100938.14;640899;223;24946;-74
2021/03/22 10:02:37;;;;;;;7.80;3.20;;;;;;;7.64;71.69;100933.41;640499;223;24897;-76
2021/03/22 10:05:07;;;;;;;7.13;2.70;;;;;;;7.45;72.06;100939.03;640198;224;24867;-74
2021/03/22 10:07:35;;;;;;;9.40;2.60;;;;;;;7.31;72.95;100944.34;627424;225;26121;-75
2021/03/22 10:10:03;;;;;;;12.43;2.97;;;;;;;7.28;75.23;100951.02;629166;225;24920;-75
2021/03/22 10:12:31;;;;;;;8.20;2.70;;;;;;;7.27;74.66;100951.49;641284;221;24909;-74
2021/03/22 10:15:07;;;;;;;10.27;3.40;;;;;;;7.56;74.63;100955.94;636047;221;32973;-74
2021/03/22 10:17:35;;;;;;;7.17;2.43;;;;;;;7.48;73.35;100950.48;641349;221;25188;-74
2021/03/22 10:20:04;;;;;;;4.43;2.30;;;;;;;7.48;73.72;100950.95;647082;220;24894;-75
2021/03/22 10:22:32;;;;;;;5.03;2.90;;;;;;;7.42;72.95;100953.48;637031;225;24946;-74
2021/03/22 10:25:03;;;;;;;6.90;2.73;;;;;;;7.28;72.38;100948.44;633490;225;24952;-75
2021/03/22 10:27:31;;;;;;;8.35;2.90;;;;;;;7.49;72.41;100949.55;623419;226;32823;-76
2021/03/22 10:30:09;;;;;;;9.78;3.20;;;;;;;7.85;73.05;100945.28;638138;221;32644;-75
2021/03/22 10:32:37;;;;;;;6.67;3.03;;;;;;;7.69;73.58;100948.96;628473;225;23802;-75
2021/03/22 10:35:06;;;;;;;9.57;2.83;;;;;;;7.48;74.05;100950.95;640014;221;24889;-74
2021/03/22 10:37:39;;;;;;;10.53;3.17;;;;;;;7.35;74.42;100947.09;635772;223;24910;-75
2021/03/22 10:40:08;;;;;;;5.53;3.20;;;;;;;7.38;74.28;100953.34;639231;224;33439;-74
2021/03/22 10:42:38;;;;;;;7.03;2.83;;;;;;;7.45;73.15;100953.27;640973;220;24929;-75
2021/03/22 10:45:18;;;;;;;8.00;3.33;;;;;;;7.70;72.10;100949.32;643021;220;24888;-76
2021/03/22 10:47:46;;;;;;;9.58;3.58;;;;;;;7.95;71.88;100942.41;639801;220;32628;-75
2021/03/22 10:50:20;;;;;;;8.13;3.33;;;;;;;7.69;75.66;100956.73;641543;221;23767;-75
2021/03/22 10:53:01;;;;;;;6.57;3.50;;;;;;;7.62;73.19;100958.58;646957;220;24865;-75
2021/03/22 10:55:31;;;;;;;7.60;3.20;;;;;;;7.59;72.88;100947.95;645492;221;24891;-75
2021/03/22 10:57:59;;;;;;;7.80;3.40;;;;;;;7.74;72.98;100961.14;646995;221;27040;-75
2021/03/22 11:00:29;;;;;;;9.93;3.10;;;;;;;7.65;72.93;100952.71;640440;221;24886;-75
2021/03/22 11:02:58;;;;;;;7.13;3.30;;;;;;;7.53;72.39;100950.16;631015;225;24929;-75
2021/03/22 11:05:28;;;;;;;12.40;4.70;;;;;;;7.60;73.55;100950.06;642948;221;24885;-75
2021/03/22 11:07:56;;;;;;;5.33;3.30;;;;;;;7.40;72.88;100949.71;644799;221;24880;-75
2021/03/22 11:10:24;;;;;;;7.80;3.23;;;;;;;7.41;74.15;100959.59;641837;221;28094;-76
2021/03/22 11:12:53;;;;;;;9.07;3.00;;;;;;;7.50;74.06;100960.26;638569;221;24879;-75
2021/03/22 11:15:28;;;;;;;6.60;3.20;;;;;;;7.66;73.64;100969.90;629722;225;24911;-76
2021/03/22 11:17:57;;;;;;;6.60;2.80;;;;;;;7.77;75.31;100975.63;638596;224;24880;-75
2021/03/22 11:20:25;;;;;;;7.33;3.60;;;;;;;7.78;73.82;100962.20;641158;224;25084;-75
2021/03/22 11:22:54;;;;;;;7.13;3.33;;;;;;;7.54;72.16;100957.81;641125;224;24865;-75
2021/03/22 11:25:34;;;;;;;7.40;2.60;;;;;;;7.70;73.01;100963.56;641208;223;24899;-77
2021/03/22 11:28:01;;;;;;;8.00;3.10;;;;;;;7.64;73.24;100958.83;628989;225;24911;-74
2021/03/22 11:30:33;;;;;;;7.93;3.43;;;;;;;7.61;73.09;100965.52;640977;223;24864;-75
2021/03/22 11:33:06;;;;;;;5.47;2.60;;;;;;;7.63;71.51;100957.17;633094;225;24936;-75
2021/03/22 11:35:34;;;;;;;7.67;2.90;;;;;;;7.57;73.01;100953.70;641315;221;24887;-76
2021/03/22 11:38:02;;;;;;;8.77;3.10;;;;;;;7.77;73.41;100960.09;627514;225;25507;-75
2021/03/22 11:40:30;;;;;;;11.07;3.03;;;;;;;7.78;72.15;100950.09;644092;220;24973;-75
2021/03/22 11:42:58;;;;;;;6.10;2.67;;;;;;;7.82;70.34;100941.16;641298;221;24907;-75